Time;durP1;ratioP1;P1;durP2;ratioP2;P2;SDS_P1;SDS_P2;PMS_P1;PMS_P2;Temp;Humidity;BMP_temperature;BMP_pressure;BME280_temperature;BME280_humidity;BME280_pressure;Samples;Min_cycle;Max_cycle;Signal;HPM_P1;HPM_P2
2022/05/05 00:02:26;;;;;;;3.08;1.60;;;;;;;13.15;57.93;150958.67;1812213;78;21045;-59
2022/05/05 00:04:53;;;;;;;6.40;2.05;;;;;;;13.12;58.04;150950.84;1811380;79;21080;-59
2022/05/05 00:07:20;;;;;;;3.02;1.60;;;;;;;13.09;58.08;150941.77;1811983;78;21087;-60
2022/05/05 00:09:47;;;;;;;4.75;1.62;;;;;;;13.07;58.22;150936.56;1811516;79;21827;-59
2022/05/05 00:15:00;;;;;;;4.95;1.80;;;;;;;13.02;58.37;150924.86;1811679;79;21044;-60
2022/05/05 00:17:27;;;;;;;2.85;1.50;;;;;;;12.99;58.44;150917.06;1812147;78;20997;-60
2022/05/05 00:19:54;;;;;;;2.95;1.42;;;;;;;12.96;58.21;150909.27;1811915;78;20996;-60
2022/05/05 00:22:21;;;;;;;2.85;1.65;;;;;;;12.93;58.25;150902.75;1809692;79;21201;-58
2022/05/05 00:24:48;;;;;;;5.45;1.90;;;;;;;12.93;58.36;150901.44;1802985;79;21001;-58
2022/05/05 00:27:16;;;;;;;4.45;2.30;;;;;;;12.90;58.51;150896.23;1803082;79;20961;-58
2022/05/05 00:29:43;;;;;;;4.58;2.33;;;;;;;12.90;58.26;150894.97;1802880;79;20946;-59
2022/05/05 00:32:11;;;;;;;3.45;2.10;;;;;;;12.88;57.76;150891.03;1802910;79;21044;-59
2022/05/05 00:34:39;;;;;;;3.77;1.67;;;;;;;12.89;57.62;150892.37;1803072;79;21351;-59
2022/05/05 00:37:07;;;;;;;2.95;1.70;;;;;;;12.89;57.37;150892.37;1802822;79;21482;-59
2022/05/05 00:39:34;;;;;;;4.40;1.55;;;;;;;12.89;57.22;150893.64;1803286;79;21442;-60
2022/05/05 00:42:01;;;;;;;3.35;1.98;;;;;;;12.88;57.16;150891.03;1802525;79;21029;-60
2022/05/05 00:44:28;;;;;;;4.87;1.42;;;;;;;12.89;56.28;150892.37;1803436;79;20965;-58
2022/05/05 00:46:55;;;;;;;3.77;1.35;;;;;;;12.90;54.39;150896.23;1802776;79;21212;-59
2022/05/05 00:49:23;;;;;;;3.47;1.30;;;;;;;12.94;53.04;150904.08;1803352;79;21009;-58
2022/05/05 00:51:50;;;;;;;1.50;1.30;;;;;;;12.98;52.75;150914.47;1803131;79;20960;-58
2022/05/05 00:54:17;;;;;;;4.70;1.60;;;;;;;13.02;51.08;150924.86;1803526;79;21029;-59
2022/05/05 00:56:45;;;;;;;2.92;1.50;;;;;;;13.04;50.72;150930.05;1803339;79;21068;-59
2022/05/05 00:59:12;;;;;;;6.65;1.75;;;;;;;13.07;47.26;150937.84;1803686;79;21186;-58
2022/05/05 01:01:40;;;;;;;2.42;1.20;;;;;;;13.13;47.27;150952.16;1803288;79;20938;-58
2022/05/05 01:04:07;;;;;;;3.47;1.40;;;;;;;13.16;46.98;150961.28;1803257;79;21008;-58
2022/05/05 01:06:35;;;;;;;4.10;1.57;;;;;;;13.16;47.04;150961.28;1803454;79;20918;-58
2022/05/05 01:09:05;;;;;;;5.33;1.60;;;;;;;13.16;48.34;150959.95;1803382;79;21028;-59
2022/05/05 01:11:32;;;;;;;3.75;1.27;;;;;;;13.12;45.37;150950.84;1803417;79;21279;-58
2022/05/05 01:13:59;;;;;;;5.17;1.30;;;;;;;13.11;45.46;150948.23;1802802;79;21153;-58
2022/05/05 01:16:28;;;;;;;2.33;1.40;;;;;;;13.09;43.75;150941.77;1803499;79;20985;-58
2022/05/05 01:18:55;;;;;;;6.47;1.40;;;;;;;13.07;43.84;150937.84;1803122;79;21013;-59
2022/05/05 01:21:23;;;;;;;2.47;1.15;;;;;;;13.03;43.73;150928.73;1803692;79;20993;-59
2022/05/05 01:23:51;;;;;;;8.53;1.50;;;;;;;13.00;43.21;150920.94;1797719;79;21240;-60
2022/05/05 01:29:04;;;;;;;;;;;;;;;12.92;44.13;150900.16;1798855;79;21064;-60
2022/05/05 01:31:31;;;;;;;8.35;1.30;;;;;;;12.88;44.39;150891.03;1796180;79;20124;-60
2022/05/05 01:33:58;;;;;;;3.87;1.05;;;;;;;12.83;44.88;150876.78;1796029;79;21021;-59
2022/05/05 01:36:25;;;;;;;2.17;1.05;;;;;;;12.80;45.31;150870.27;1796276;79;21850;-60
2022/05/05 01:38:52;;;;;;;4.10;1.25;;;;;;;12.73;43.87;150852.08;1795906;79;21013;-60
2022/05/05 01:41:21;;;;;;;2.20;1.30;;;;;;;12.70;44.93;150844.25;1795940;79;21076;-59
2022/05/05 01:43:48;;;;;;;4.37;1.17;;;;;;;12.66;44.98;150835.19;1796620;79;20965;-59
2022/05/05 01:46:15;;;;;;;2.52;1.10;;;;;;;12.60;44.54;150820.88;1796019;79;21624;-60
2022/05/05 01:48:43;;;;;;;5.08;1.20;;;;;;;12.55;45.34;150807.89;1795690;79;21225;-60
2022/05/05 01:51:10;;;;;;;2.72;1.10;;;;;;;12.51;44.99;150797.50;1795709;79;21001;-60
2022/05/05 01:53:37;;;;;;;2.52;1.07;;;;;;;12.49;45.16;150790.98;1795991;79;20985;-60
2022/05/05 01:56:12;;;;;;;2.83;1.00;;;;;;;12.43;44.83;150778.00;1795528;79;21056;-60
2022/05/05 01:58:44;;;;;;;2.15;1.02;;;;;;;12.42;45.34;150774.08;1795892;79;20922;-59
2022/05/05 02:01:11;;;;;;;4.28;1.52;;;;;;;12.39;45.24;150767.61;1795919;79;21209;-60
2022/05/05 02:03:39;;;;;;;4.35;1.65;;;;;;;12.40;45.26;150768.89;1795853;79;21378;-61
2022/05/05 02:06:07;;;;;;;6.28;1.52;;;;;;;12.37;44.84;150761.09;1795122;79;21570;-60
2022/05/05 02:08:35;;;;;;;3.00;1.10;;;;;;;12.34;45.19;150753.31;1795766;79;20914;-59
2022/05/05 02:11:02;;;;;;;1.40;0.90;;;;;;;12.34;45.53;150754.58;1765039;79;21024;-59
2022/05/05 02:13:29;;;;;;;3.70;1.00;;;;;;;12.31;44.94;150748.11;1796098;79;22094;-59
2022/05/05 02:15:56;;;;;;;4.62;1.20;;;;;;;12.28;43.62;150740.33;1795598;79;21140;-59
2022/05/05 02:18:23;;;;;;;2.00;0.93;;;;;;;12.30;44.25;150744.20;1795897;79;21108;-59
2022/05/05 02:20:50;;;;;;;7.47;1.10;;;;;;;12.29;44.54;150742.92;1795768;79;21051;-60
2022/05/05 02:23:18;;;;;;;4.67;1.20;;;;;;;12.28;43.90;150740.33;1802710;78;21106;-59
2022/05/05 02:25:45;;;;;;;2.33;0.90;;;;;;;12.29;43.97;150741.59;1812076;78;21194;-60
2022/05/05 02:28:12;;;;;;;2.55;1.00;;;;;;;12.28;43.96;150740.33;1812184;78;21102;-64
2022/05/05 02:30:40;;;;;;;3.05;1.05;;;;;;;12.29;43.87;150742.92;1812313;78;20858;-59
2022/05/05 02:33:07;;;;;;;5.87;1.30;;;;;;;12.29;44.29;150741.59;1811860;79;20944;-60
2022/05/05 02:35:35;;;;;;;2.87;1.20;;;;;;;12.29;44.77;150741.59;1812408;78;20993;-60
2022/05/05 02:40:49;;;;;;;7.47;1.45;;;;;;;12.25;44.92;150731.22;1812169;78;21008;-58
2022/05/05 02:43:16;;;;;;;3.50;1.20;;;;;;;12.21;45.97;150720.83;1812060;78;21470;-59
2022/05/05 02:45:43;;;;;;;7.55;1.40;;;;;;;12.18;44.90;150715.64;1812149;78;20945;-59
2022/05/05 02:48:10;;;;;;;6.53;1.30;;;;;;;12.18;45.35;150714.31;1811991;79;21095;-59
2022/05/05 02:50:37;;;;;;;1.85;1.00;;;;;;;12.15;45.15;150706.53;1811773;78;21228;-59
2022/05/05 02:54:47;;;;;;;4.75;1.27;;;;;;;12.14;45.09;150703.94;1811126;78;21064;-60
2022/05/05 02:55:34;;;;;;;4.08;1.30;;;;;;;12.12;44.56;150698.73;1807008;78;21049;-58
2022/05/05 02:58:01;;;;;;;1.90;1.10;;;;;;;12.11;46.07;150696.14;1811157;79;21497;-59
2022/05/05 03:00:28;;;;;;;5.05;1.30;;;;;;;12.07;46.46;150685.77;1812022;79;20984;-59
2022/05/05 03:02:56;;;;;;;5.17;1.20;;;;;;;12.02;46.92;150675.33;1811005;79;21800;-59
2022/05/05 03:05:23;;;;;;;4.28;1.30;;;;;;;11.98;47.15;150664.89;1811721;79;21013;-59
2022/05/05 03:07:50;;;;;;;2.90;1.40;;;;;;;11.94;47.00;150653.25;1811968;78;21051;-59
2022/05/05 03:10:17;;;;;;;2.45;1.32;;;;;;;11.90;47.11;150644.13;1811833;78;21107;-60
2022/05/05 03:12:44;;;;;;;4.85;1.60;;;;;;;11.87;46.98;150636.34;1812064;79;21024;-60
2022/05/05 03:15:11;;;;;;;4.08;1.60;;;;;;;11.81;47.02;150620.72;1812115;78;21457;-59
2022/05/05 03:17:40;;;;;;;4.15;1.20;;;;;;;11.75;47.34;150606.47;1812758;78;20981;-60
2022/05/05 03:20:09;;;;;;;4.33;1.40;;;;;;;11.70;47.64;150593.45;1812078;79;21047;-60
2022/05/05 03:22:37;;;;;;;2.02;1.15;;;;;;;11.66;47.52;150584.39;1812540;78;21343;-59
2022/05/05 03:25:05;;;;;;;9.30;1.60;;;;;;;11.60;46.90;150568.78;1812170;78;20952;-60
2022/05/05 03:27:37;;;;;;;6.95;1.40;;;;;;;11.57;47.21;150562.31;1812946;79;21146;-60
2022/05/05 03:30:06;;;;;;;4.47;1.40;;;;;;;11.54;47.66;150553.20;1782250;79;21067;-60
2022/05/05 03:32:33;;;;;;;6.35;1.30;;;;;;;11.50;47.72;150542.81;1812689;78;21000;-58
2022/05/05 03:35:00;;;;;;;2.45;1.22;;;;;;;11.43;48.04;150527.25;1811990;78;20949;-57
2022/05/05 03:37:31;;;;;;;8.78;1.70;;;;;;;11.40;48.46;150519.47;1812572;78;20996;-58
2022/05/05 03:39:58;;;;;;;4.17;1.40;;;;;;;11.38;48.65;150514.23;1812406;79;21228;-58
2022/05/05 03:42:25;;;;;;;3.60;1.42;;;;;;;11.34;48.78;150503.86;1812784;78;21027;-60
2022/05/05 03:44:55;;;;;;;2.77;1.25;;;;;;;11.29;49.02;150492.20;1812109;79;21619;-59
2022/05/05 03:47:22;;;;;;;2.10;1.27;;;;;;;11.27;49.17;150487.02;1812680;79;20992;-60
2022/05/05 03:49:49;;;;;;;3.98;1.35;;;;;;;11.25;49.47;150480.50;1812513;79;21399;-60
2022/05/05 03:52:16;;;;;;;4.87;1.37;;;;;;;11.21;49.29;150470.12;1812306;79;21513;-60
2022/05/05 03:54:43;;;;;;;4.20;1.30;;;;;;;11.17;49.43;150462.34;1812330;78;20940;-60
2022/05/05 03:57:11;;;;;;;6.15;1.40;;;;;;;11.14;48.62;150454.52;1812177;78;21020;-59
2022/05/05 03:59:38;;;;;;;6.70;1.60;;;;;;;11.10;49.15;150444.14;1812388;79;20925;-60
2022/05/05 04:02:06;;;;;;;2.62;1.20;;;;;;;11.09;49.09;150441.55;1812209;78;21039;-59
2022/05/05 04:04:33;;;;;;;5.62;1.30;;;;;;;11.08;49.12;150438.94;1812556;79;21390;-60
2022/05/05 04:07:00;;;;;;;5.58;1.50;;;;;;;11.07;49.32;150435.08;1812122;78;21099;-60
2022/05/05 04:09:27;;;;;;;8.05;1.47;;;;;;;11.07;49.02;150436.36;1812528;78;21060;-60
2022/05/05 04:11:55;;;;;;;4.42;1.45;;;;;;;11.05;48.87;150431.16;1812061;79;21012;-62
2022/05/05 04:14:22;;;;;;;5.95;1.20;;;;;;;11.01;48.96;150422.06;1812717;79;21086;-60
2022/05/05 04:16:50;;;;;;;3.30;1.30;;;;;;;10.97;49.22;150410.42;1812220;79;21886;-59
2022/05/05 04:19:17;;;;;;;5.28;1.57;;;;;;;10.95;49.51;150405.22;1812016;78;21044;-59
2022/05/05 04:21:44;;;;;;;8.28;1.52;;;;;;;10.95;49.81;150405.22;1812188;79;21021;-59
2022/05/05 04:24:11;;;;;;;3.65;1.12;;;;;;;10.96;49.50;150407.81;1807276;78;21063;-59
2022/05/05 04:26:39;;;;;;;5.37;1.40;;;;;;;10.98;49.04;150413.00;1803224;79;21324;-60
2022/05/05 04:29:07;;;;;;;7.42;1.62;;;;;;;10.98;48.45;150414.28;1802955;79;21830;-59
2022/05/05 04:31:34;;;;;;;4.67;1.40;;;;;;;10.97;48.43;150411.69;1803373;79;20977;-59
2022/05/05 04:34:01;;;;;;;4.78;1.50;;;;;;;10.96;47.92;150409.09;1802210;79;21012;-60
2022/05/05 04:36:28;;;;;;;2.85;1.45;;;;;;;10.96;47.96;150407.81;1802591;79;21001;-59
2022/05/05 04:38:55;;;;;;;3.85;1.40;;;;;;;10.97;48.51;150410.42;1802228;79;21473;-58
2022/05/05 04:41:23;;;;;;;2.77;1.50;;;;;;;10.99;48.49;150415.59;1803071;79;21241;-59
2022/05/05 04:43:50;;;;;;;4.85;1.52;;;;;;;11.01;49.02;150420.78;1802457;79;21084;-59
2022/05/05 04:46:17;;;;;;;3.27;1.50;;;;;;;11.02;48.06;150424.66;1802939;79;21031;-58
2022/05/05 04:48:44;;;;;;;4.72;1.70;;;;;;;11.04;48.46;150429.84;1802569;79;20969;-58
2022/05/05 04:51:11;;;;;;;5.25;1.42;;;;;;;11.05;48.47;150431.16;1802722;79;21004;-59
2022/05/05 04:53:38;;;;;;;7.12;1.40;;;;;;;11.09;48.67;150441.55;1803192;79;21319;-59
2022/05/05 04:56:06;;;;;;;8.33;1.60;;;;;;;11.14;48.39;150454.52;1802854;79;21009;-60
2022/05/05 04:58:33;;;;;;;4.25;1.50;;;;;;;11.20;47.92;150467.53;1803232;79;21029;-59
2022/05/05 05:01:01;;;;;;;4.40;1.55;;;;;;;11.28;47.87;150489.61;1802859;79;21068;-60
2022/05/05 05:03:39;;;;;;;6.80;1.87;;;;;;;11.36;47.49;150509.05;1802978;79;20965;-61
2022/05/05 05:06:08;;;;;;;5.20;1.50;;;;;;;11.45;47.25;150532.44;1802543;79;21472;-59
2022/05/05 05:08:37;;;;;;;3.27;1.47;;;;;;;11.54;46.14;150553.20;1802699;79;21020;-60
2022/05/05 05:11:04;;;;;;;6.72;1.80;;;;;;;11.64;46.82;150579.20;1802561;79;21452;-59
2022/05/05 05:13:31;;;;;;;3.47;1.40;;;;;;;11.83;47.22;150625.97;1803040;79;21065;-58
2022/05/05 05:15:58;;;;;;;6.50;1.57;;;;;;;11.99;46.38;150667.50;1802371;79;21079;-59
2022/05/05 05:18:25;;;;;;;4.10;1.50;;;;;;;12.13;46.36;150702.61;1802888;79;21270;-60
2022/05/05 05:20:53;;;;;;;5.83;1.62;;;;;;;12.21;46.06;150722.09;1802328;79;21044;-60
2022/05/05 05:23:20;;;;;;;4.95;1.60;;;;;;;12.19;44.81;150716.91;1802453;79;21047;-60
2022/05/05 05:25:47;;;;;;;2.80;1.55;;;;;;;12.17;45.87;150711.72;1795075;79;21879;-61
2022/05/05 05:28:16;;;;;;;5.42;1.82;;;;;;;12.26;46.00;150735.09;1794992;79;21028;-61
2022/05/05 05:30:43;;;;;;;10.85;2.75;;;;;;;12.30;45.96;150745.52;1795342;79;21088;-60
2022/05/05 05:33:10;;;;;;;18.07;3.70;;;;;;;12.34;45.82;150753.31;1795446;79;21555;-60
2022/05/05 05:35:38;;;;;;;12.93;2.42;;;;;;;12.38;45.71;150763.69;1795836;79;21356;-61
2022/05/05 05:38:06;;;;;;;9.68;2.42;;;;;;;12.39;45.33;150767.61;1795054;79;21277;-61
2022/05/05 05:40:33;;;;;;;10.35;2.85;;;;;;;12.33;45.52;150751.98;1795681;79;21258;-60
2022/05/05 05:43:00;;;;;;;9.48;2.35;;;;;;;12.27;45.99;150737.73;1795167;79;22120;-60
2022/05/05 05:45:27;;;;;;;9.58;2.35;;;;;;;12.28;45.78;150740.33;1795793;79;21064;-60
2022/05/05 05:47:55;;;;;;;11.63;2.42;;;;;;;12.34;46.39;150754.58;1795363;79;21053;-62
2022/05/05 05:50:22;;;;;;;6.35;1.67;;;;;;;12.48;46.02;150789.66;1795709;79;21036;-59
2022/05/05 05:52:50;;;;;;;8.33;2.30;;;;;;;12.55;44.96;150807.89;1796056;79;21415;-61
2022/05/05 05:55:18;;;;;;;8.70;2.00;;;;;;;12.58;44.39;150815.67;1795754;79;21027;-59
2022/05/05 05:57:45;;;;;;;6.65;2.05;;;;;;;12.57;44.53;150813.08;1795569;79;21025;-60
2022/05/05 06:00:13;;;;;;;4.55;1.40;;;;;;;12.60;44.91;150819.59;1795621;79;21000;-59
2022/05/05 06:05:26;;;;;;;5.62;2.12;;;;;;;12.81;45.22;150872.86;1796061;79;21024;-59
2022/05/05 06:08:00;;;;;;;6.97;1.82;;;;;;;13.01;44.89;150923.53;1796177;79;21149;-60
2022/05/05 06:10:27;;;;;;;4.70;1.60;;;;;;;13.20;44.28;150969.06;1796224;79;21005;-60
2022/05/05 06:12:55;;;;;;;8.15;1.70;;;;;;;13.33;43.94;151002.84;1795535;79;21017;-60
2022/05/05 06:15:22;;;;;;;5.20;1.55;;;;;;;13.43;43.34;151028.92;1795784;79;21017;-60
2022/05/05 06:17:50;;;;;;;2.58;1.52;;;;;;;13.55;42.98;151057.50;1795780;79;21097;-59
2022/05/05 06:20:17;;;;;;;6.10;1.95;;;;;;;13.66;42.80;151086.14;1791008;79;21524;-60
2022/05/05 06:22:45;;;;;;;4.37;1.60;;;;;;;13.85;42.17;151132.97;1793559;78;20998;-61
2022/05/05 06:25:12;;;;;;;7.85;1.85;;;;;;;13.96;41.72;151161.56;1805054;78;21040;-61
2022/05/05 06:27:41;;;;;;;4.92;2.20;;;;;;;14.06;41.14;151185.00;1807503;78;20996;-61
2022/05/05 06:30:10;;;;;;;4.42;1.70;;;;;;;14.11;40.48;151199.28;1795745;78;21059;-60
2022/05/05 06:32:37;;;;;;;6.37;1.70;;;;;;;14.16;40.69;151211.00;1812551;78;21198;-60
2022/05/05 06:35:06;;;;;;;5.47;1.62;;;;;;;14.30;41.16;151247.45;1811751;79;21512;-59
2022/05/05 06:37:33;;;;;;;6.37;1.87;;;;;;;14.50;40.96;151296.91;1812831;78;21072;-61
2022/05/05 06:40:04;;;;;;;5.92;1.70;;;;;;;14.65;41.21;151333.31;1811764;79;21088;-59
2022/05/05 06:42:29;;;;;;;2.40;1.60;;;;;;;14.78;40.88;151367.22;1811717;79;21490;-61
2022/05/05 06:44:58;;;;;;;4.90;1.85;;;;;;;14.93;40.31;151403.67;1809505;78;21101;-60
2022/05/05 06:47:25;;;;;;;8.45;1.85;;;;;;;14.96;39.94;151411.48;1782284;78;21012;-60
2022/05/05 06:49:52;;;;;;;4.75;1.77;;;;;;;14.92;39.21;151402.34;1807968;78;21091;-59
2022/05/05 06:52:19;;;;;;;7.45;1.72;;;;;;;14.94;38.93;151406.28;1799565;79;21092;-61
2022/05/05 06:54:47;;;;;;;5.70;1.70;;;;;;;14.99;39.82;151419.28;1791684;78;20973;-61
2022/05/05 06:57:14;;;;;;;5.10;1.85;;;;;;;15.07;39.12;151440.09;1805677;79;21918;-60
2022/05/05 06:59:42;;;;;;;7.78;1.90;;;;;;;15.07;37.91;151440.09;1811818;78;20992;-60
2022/05/05 07:02:09;;;;;;;3.98;1.82;;;;;;;15.06;38.55;151436.22;1810005;78;21048;-60
2022/05/05 07:07:23;;;;;;;4.62;1.77;;;;;;;15.22;38.44;151476.56;1779728;80;21069;-58
2022/05/05 07:12:37;;;;;;;4.83;2.10;;;;;;;15.36;38.42;151512.98;1802771;79;20989;-61
2022/05/05 07:15:06;;;;;;;5.92;1.90;;;;;;;15.46;38.37;151539.06;1794022;79;21032;-61
2022/05/05 07:17:33;;;;;;;4.72;1.90;;;;;;;15.51;36.79;151549.47;1812563;79;20945;-60
2022/05/05 07:20:01;;;;;;;4.58;2.10;;;;;;;15.55;37.05;151561.20;1786282;78;21000;-62
2022/05/05 07:22:28;;;;;;;6.37;2.05;;;;;;;15.56;35.32;151562.47;1787340;79;21945;-61
2022/05/05 07:24:55;;;;;;;7.10;1.75;;;;;;;15.64;36.32;151582.02;1775185;79;21061;-60
2022/05/05 07:27:22;;;;;;;4.22;1.85;;;;;;;15.67;36.82;151589.81;1762765;81;21072;-61
2022/05/05 07:29:49;;;;;;;4.97;2.75;;;;;;;15.65;36.99;151585.94;1762378;81;21515;-60
2022/05/05 07:32:17;;;;;;;5.47;2.33;;;;;;;15.74;36.72;151609.36;1795118;79;21036;-60
2022/05/05 07:34:44;;;;;;;4.60;2.10;;;;;;;15.80;35.00;151622.38;1803003;79;21091;-59
2022/05/05 07:37:12;;;;;;;4.50;1.70;;;;;;;15.78;35.59;151617.17;1802794;79;21004;-59
2022/05/05 07:39:39;;;;;;;7.17;2.10;;;;;;;15.75;34.35;151610.69;1795957;79;21006;-59
2022/05/05 07:42:08;;;;;;;12.70;1.98;;;;;;;15.82;34.84;151627.63;1794674;78;21111;-60
2022/05/05 07:44:35;;;;;;;5.58;1.50;;;;;;;15.86;34.03;151638.05;1795659;79;21005;-59
2022/05/05 07:47:03;;;;;;;4.85;1.70;;;;;;;15.86;32.45;151639.31;1797477;79;21782;-59
2022/05/05 07:49:30;;;;;;;4.70;1.85;;;;;;;15.95;32.87;151661.52;1803123;79;21485;-59
2022/05/05 07:51:57;;;;;;;2.72;1.50;;;;;;;15.99;33.42;151670.66;1800192;79;21052;-59
2022/05/05 07:54:43;;;;;;;4.17;1.60;;;;;;;16.01;31.73;151677.13;1803087;79;21025;-59
2022/05/05 07:57:08;;;;;;;4.33;1.52;;;;;;;15.96;31.59;151662.84;1801369;79;21025;-59
2022/05/05 07:59:36;;;;;;;5.92;1.50;;;;;;;15.92;31.13;151652.44;1799641;79;21372;-59
2022/05/05 08:02:04;;;;;;;5.67;1.67;;;;;;;15.92;31.57;151653.70;1779365;79;21013;-61
2022/05/05 08:04:32;;;;;;;5.17;1.87;;;;;;;15.96;32.20;151662.84;1777659;79;21491;-60
2022/05/05 08:07:00;;;;;;;10.45;1.37;;;;;;;16.03;31.22;151681.06;1771130;79;21446;-60
2022/05/05 08:09:27;;;;;;;5.42;1.40;;;;;;;16.12;32.15;151703.22;1784695;79;21060;-60
2022/05/05 08:11:55;;;;;;;2.30;1.52;;;;;;;16.24;31.15;151733.17;1782427;79;21219;-60
2022/05/05 08:14:23;;;;;;;6.80;1.80;;;;;;;16.28;30.70;151743.59;1787620;79;38400;-60
2022/05/05 08:16:51;;;;;;;4.10;1.42;;;;;;;16.23;30.78;151730.58;1796752;79;21107;-60
2022/05/05 08:19:18;;;;;;;7.50;1.65;;;;;;;16.14;30.92;151709.75;1802843;79;21276;-60
2022/05/05 08:21:45;;;;;;;2.00;1.12;;;;;;;16.15;30.08;151711.03;1793139;79;20989;-60
2022/05/05 08:29:44;;;;;;;5.45;1.60;;;;;;;16.22;30.81;151727.97;1771278;81;21052;-59
2022/05/05 08:32:11;;;;;;;4.87;1.70;;;;;;;16.25;30.23;151737.11;1776114;79;21041;-58
2022/05/05 08:34:40;;;;;;;3.47;1.20;;;;;;;16.19;30.12;151721.44;1771771;79;20934;-59
2022/05/05 08:37:07;;;;;;;6.45;1.55;;;;;;;16.17;31.00;151716.22;1770786;79;21330;-58
2022/05/05 08:39:34;;;;;;;6.12;1.30;;;;;;;16.23;30.92;151731.84;1771096;81;21016;-59
2022/05/05 08:42:04;;;;;;;3.08;1.55;;;;;;;16.33;29.24;151757.94;1770688;81;21620;-59
2022/05/05 08:44:31;;;;;;;5.53;1.30;;;;;;;16.33;30.08;151757.94;1771328;79;21005;-60
2022/05/05 08:46:59;;;;;;;3.72;1.35;;;;;;;16.33;30.57;151757.94;1753896;79;21140;-61
2022/05/05 08:49:26;;;;;;;4.95;1.50;;;;;;;16.32;30.87;151755.33;1784679;79;21970;-60
2022/05/05 08:52:13;;;;;;;3.20;1.82;;;;;;;16.30;30.93;151750.12;1769537;79;21037;-62
2022/05/05 08:54:40;;;;;;;5.62;1.35;;;;;;;16.30;31.11;151750.12;1774162;79;21420;-59
2022/05/05 08:57:08;;;;;;;5.10;1.30;;;;;;;16.33;31.64;151757.94;1770710;79;21091;-60
2022/05/05 08:59:35;;;;;;;2.62;1.40;;;;;;;16.33;31.29;151757.94;1771405;81;21400;-59
2022/05/05 09:02:02;;;;;;;3.85;1.40;;;;;;;16.27;31.87;151742.31;1771144;79;21199;-59
2022/05/05 09:04:29;;;;;;;5.70;1.27;;;;;;;16.34;31.79;151759.22;1771623;81;21005;-59
2022/05/05 09:06:56;;;;;;;2.62;1.30;;;;;;;16.49;30.74;151797.03;1792048;78;21151;-61
2022/05/05 09:09:33;;;;;;;3.50;1.40;;;;;;;16.58;31.00;151819.19;1795351;79;21104;-60
2022/05/05 09:12:17;;;;;;;8.08;1.60;;;;;;;16.65;31.75;151836.09;1799610;79;21040;-60
2022/05/05 09:14:53;;;;;;;5.08;1.50;;;;;;;16.65;30.44;151837.42;1796545;79;21907;-60
2022/05/05 09:17:29;;;;;;;7.42;1.25;;;;;;;16.56;29.78;151815.27;1803340;79;21031;-59
2022/05/05 09:19:57;;;;;;;7.67;1.65;;;;;;;16.47;29.98;151791.83;1768346;79;21056;-60
2022/05/05 09:22:27;;;;;;;3.12;1.30;;;;;;;16.51;30.15;151802.25;1762953;81;21072;-60
2022/05/05 09:24:57;;;;;;;4.35;1.20;;;;;;;16.61;30.21;151828.28;1780129;78;21091;-60
2022/05/05 09:27:32;;;;;;;2.87;1.35;;;;;;;16.71;29.39;151851.77;1803026;79;21145;-60
2022/05/05 09:30:09;;;;;;;2.40;1.17;;;;;;;16.75;29.70;151862.19;1803199;79;21090;-61
2022/05/05 09:32:42;;;;;;;4.10;1.32;;;;;;;16.79;29.38;151872.59;1791492;79;21050;-59
2022/05/05 09:35:16;;;;;;;3.05;1.15;;;;;;;16.74;28.90;151860.86;1795186;77;21024;-59
2022/05/05 09:37:50;;;;;;;4.42;1.20;;;;;;;16.63;28.61;151832.22;1795323;79;21455;-59
2022/05/05 09:40:20;;;;;;;5.15;1.05;;;;;;;16.61;28.58;151828.28;1798467;79;22617;-58
2022/05/05 09:42:49;;;;;;;3.47;1.10;;;;;;;16.72;28.49;151855.66;1800175;79;20981;-60
2022/05/05 09:45:31;;;;;;;6.90;1.00;;;;;;;16.69;27.12;151847.84;1786944;79;21039;-62
2022/05/05 09:48:01;;;;;;;3.67;1.47;;;;;;;16.63;27.25;151830.89;1802256;79;21068;-60
2022/05/05 09:50:32;;;;;;;3.85;1.45;;;;;;;16.60;28.10;151824.41;1800034;79;21481;-60
2022/05/05 09:58:39;;;;;;;5.35;1.20;;;;;;;16.68;29.88;151843.91;1780732;79;21001;-60
2022/05/05 10:01:10;;;;;;;4.25;1.00;;;;;;;16.79;28.68;151871.28;1793148;79;21076;-60
2022/05/05 10:04:02;;;;;;;2.12;1.10;;;;;;;16.85;28.38;151888.23;1794462;79;20989;-59
2022/05/05 10:06:43;;;;;;;2.52;1.17;;;;;;;16.90;28.20;151899.97;1762702;81;21284;-60
2022/05/05 10:09:13;;;;;;;4.80;1.40;;;;;;;16.87;28.58;151892.16;1762666;81;21102;-61
2022/05/05 10:11:41;;;;;;;2.62;1.12;;;;;;;16.81;27.77;151877.81;1763138;81;20989;-60
2022/05/05 10:14:10;;;;;;;2.92;1.20;;;;;;;16.76;28.38;151864.78;1778791;79;21107;-60
2022/05/05 10:16:39;;;;;;;6.87;1.32;;;;;;;16.77;28.31;151867.41;1771211;81;21112;-60
2022/05/05 10:19:07;;;;;;;2.58;1.15;;;;;;;16.72;28.56;151854.37;1770906;79;21812;-60
2022/05/05 10:22:11;;;;;;;5.42;1.17;;;;;;;16.66;27.61;151838.70;1771297;79;20998;-61
2022/05/05 10:24:54;;;;;;;2.17;0.95;;;;;;;16.62;26.41;151829.61;1791844;79;20925;-60
2022/05/05 10:27:21;;;;;;;1.57;1.10;;;;;;;16.58;26.35;151820.47;1802483;79;22126;-59
2022/05/05 10:29:48;;;;;;;3.10;1.10;;;;;;;16.60;26.75;151825.69;1802728;79;20874;-59
2022/05/05 10:32:25;;;;;;;2.02;1.00;;;;;;;16.68;26.77;151843.91;1802664;79;21224;-60
2022/05/05 10:35:09;;;;;;;3.50;1.30;;;;;;;16.81;25.99;151877.81;1780447;79;20965;-59
2022/05/05 10:37:37;;;;;;;4.87;1.12;;;;;;;16.89;26.33;151898.66;1762822;81;21002;-60
2022/05/05 10:40:09;;;;;;;4.42;1.30;;;;;;;16.97;26.65;151918.22;1763071;81;21009;-60
2022/05/05 10:42:40;;;;;;;5.12;1.27;;;;;;;16.97;25.60;151916.94;1762880;80;20982;-61
2022/05/05 10:45:22;;;;;;;2.90;1.20;;;;;;;16.97;26.35;151916.94;1779529;79;21158;-60
2022/05/05 10:50:43;;;;;;;3.50;1.32;;;;;;;17.03;25.75;151933.94;1775663;79;21057;-60
2022/05/05 10:53:06;;;;;;;1.60;1.10;;;;;;;17.10;25.09;151950.84;1782550;79;21055;-60
2022/05/05 10:55:45;;;;;;;2.20;1.10;;;;;;;17.01;25.70;151927.41;1799305;79;21044;-61
2022/05/05 10:59:08;;;;;;;4.03;1.30;;;;;;;16.99;25.54;151922.19;1778678;79;21004;-60
2022/05/05 11:01:50;;;;;;;9.25;1.60;;;;;;;16.94;26.28;151909.13;1771446;81;20985;-60
2022/05/05 11:04:24;;;;;;;2.60;1.50;;;;;;;16.87;26.83;151893.44;1782106;79;21028;-59
2022/05/05 11:07:36;;;;;;;4.83;1.35;;;;;;;16.84;27.15;151884.34;1803188;79;20894;-60
2022/05/05 11:10:04;;;;;;;3.58;1.30;;;;;;;16.79;27.61;151871.28;1798012;79;21616;-59
2022/05/05 11:12:34;;;;;;;2.10;1.22;;;;;;;16.80;27.95;151875.22;1779181;79;21192;-59
2022/05/05 11:23:50;;;;;;;4.50;1.47;;;;;;;16.92;27.33;151903.91;1803169;79;20946;-60
2022/05/05 11:26:20;;;;;;;2.05;1.15;;;;;;;16.92;27.44;151903.91;1802439;79;21458;-60
2022/05/05 11:28:48;;;;;;;5.55;1.45;;;;;;;16.93;27.76;151907.78;1772525;79;21489;-62
2022/05/05 11:31:21;;;;;;;4.10;1.30;;;;;;;16.99;28.77;151922.19;1786724;79;21072;-61
2022/05/05 11:33:58;;;;;;;5.63;1.60;;;;;;;17.05;28.56;151937.81;1771826;79;20994;-60
2022/05/05 11:36:32;;;;;;;3.10;1.52;;;;;;;17.04;27.18;151936.53;1792886;79;21067;-60
2022/05/05 11:39:00;;;;;;;2.52;1.12;;;;;;;17.02;27.26;151931.33;1803403;79;21126;-60
2022/05/05 11:41:28;;;;;;;4.80;1.60;;;;;;;17.01;27.58;151928.67;1800147;79;21054;-60
2022/05/05 11:46:41;;;;;;;2.58;1.30;;;;;;;17.06;27.48;151940.42;1803300;79;21400;-60
2022/05/05 11:49:09;;;;;;;3.85;1.57;;;;;;;17.12;26.42;151956.05;1803178;79;21028;-60
2022/05/05 11:51:36;;;;;;;3.40;1.40;;;;;;;17.08;26.21;151945.63;1803040;79;21117;-60
2022/05/05 11:54:14;;;;;;;7.53;1.22;;;;;;;17.05;27.05;151937.81;1803035;79;21086;-60
2022/05/05 11:56:49;;;;;;;3.47;1.40;;;;;;;17.10;26.57;151950.84;1803542;79;20997;-60
2022/05/05 12:02:12;;;;;;;2.52;1.32;;;;;;;17.10;26.77;151950.84;1794085;79;21033;-60
2022/05/05 12:04:47;;;;;;;3.60;1.70;;;;;;;17.08;26.85;151944.36;1803478;79;22079;-60
2022/05/05 12:07:20;;;;;;;5.87;1.30;;;;;;;17.12;27.46;151954.78;1803217;79;20968;-60
2022/05/05 12:09:53;;;;;;;;;;;;;;;17.15;26.89;151963.92;1802273;79;21325;-60
2022/05/05 12:12:25;;;;;;;2.87;1.32;;;;;;;17.14;26.53;151961.31;1785672;77;20197;-60
2022/05/05 12:15:01;;;;;;;6.20;1.47;;;;;;;17.08;25.93;151945.63;1802950;79;20949;-61
2022/05/05 12:17:42;;;;;;;5.47;1.70;;;;;;;17.09;27.32;151948.23;1802830;79;21773;-61
2022/05/05 12:20:07;;;;;;;3.55;1.60;;;;;;;17.18;26.89;151970.41;1802691;79;20985;-61